createdAt,value
2023-01-23T00:00:00.674Z,7.05
2023-01-23T00:02:27.536Z,7.53
2023-01-23T00:04:53.943Z,6.90
2023-01-23T00:07:20.309Z,6.90
2023-01-23T00:09:46.696Z,7.32
2023-01-23T00:12:13.100Z,7.38
2023-01-23T00:14:39.458Z,7.15
2023-01-23T00:17:05.876Z,7.07
2023-01-23T00:19:32.281Z,7.33
2023-01-23T00:22:00.778Z,7.25
2023-01-23T00:24:27.479Z,6.93
2023-01-23T00:26:53.837Z,6.97
2023-01-23T00:29:20.222Z,7.32
2023-01-23T00:31:46.690Z,7.03
2023-01-23T00:34:15.142Z,7.10
2023-01-23T00:36:44.747Z,7.00
2023-01-23T00:39:19.784Z,6.95
2023-01-23T00:41:47.679Z,7.03
2023-01-23T00:44:14.575Z,6.63
2023-01-23T00:46:41.260Z,6.45
2023-01-23T00:49:08.211Z,6.32
2023-01-23T00:51:35.034Z,6.13
2023-01-23T00:54:02.634Z,6.47
2023-01-23T00:56:30.765Z,6.70
2023-01-23T00:58:57.282Z,6.32
2023-01-23T01:01:23.883Z,5.85
2023-01-23T01:03:50.343Z,6.13
2023-01-23T01:06:16.892Z,6.18
2023-01-23T01:08:43.294Z,6.23
2023-01-23T01:11:09.682Z,6.28
2023-01-23T01:13:36.300Z,5.93
2023-01-23T01:16:03.004Z,6.32
2023-01-23T01:18:29.761Z,6.25
2023-01-23T01:20:56.900Z,6.40
2023-01-23T01:23:23.354Z,5.70
2023-01-23T01:25:49.840Z,6.15
2023-01-23T01:28:16.776Z,6.13
2023-01-23T01:30:43.302Z,6.57
2023-01-23T01:33:11.016Z,7.07
2023-01-23T01:35:40.825Z,6.22
2023-01-23T01:38:08.776Z,6.28
2023-01-23T01:40:36.389Z,6.68
2023-01-23T01:43:06.421Z,6.78
2023-01-23T01:46:00.956Z,7.20
2023-01-23T01:48:35.677Z,6.82
2023-01-23T01:51:07.823Z,6.95
2023-01-23T01:53:36.326Z,7.53
2023-01-23T01:56:03.052Z,6.50
2023-01-23T01:58:29.712Z,6.27
2023-01-23T02:00:57.031Z,7.38
2023-01-23T02:03:24.792Z,6.38
2023-01-23T02:05:51.269Z,6.47
2023-01-23T02:08:30.081Z,6.85
2023-01-23T02:10:56.751Z,6.83
2023-01-23T02:13:30.369Z,6.90
2023-01-23T02:15:59.753Z,6.35
2023-01-23T02:18:28.074Z,6.63
2023-01-23T02:20:57.720Z,6.22
2023-01-23T02:23:58.102Z,6.20
2023-01-23T02:26:36.590Z,6.30
2023-01-23T02:29:05.004Z,6.22
2023-01-23T02:31:31.664Z,7.00
2023-01-23T02:33:59.613Z,6.57
2023-01-23T02:36:29.414Z,6.53
2023-01-23T02:39:00.414Z,6.60
2023-01-23T02:41:34.032Z,7.03
2023-01-23T02:44:04.886Z,6.97
2023-01-23T02:46:31.781Z,6.57
2023-01-23T02:48:58.330Z,6.47
2023-01-23T02:51:24.899Z,6.45
2023-01-23T02:53:51.402Z,6.38
2023-01-23T02:56:18.323Z,7.30
2023-01-23T02:59:03.585Z,6.40
2023-01-23T03:01:31.377Z,7.30
2023-01-23T03:03:57.757Z,6.68
2023-01-23T03:06:24.396Z,6.57
2023-01-23T03:08:50.942Z,7.55
2023-01-23T03:11:19.448Z,6.28
2023-01-23T03:13:47.456Z,6.97
2023-01-23T03:16:14.201Z,6.38
2023-01-23T03:18:53.648Z,6.68
2023-01-23T03:21:20.877Z,6.30
2023-01-23T03:23:48.273Z,7.05
2023-01-23T03:26:15.392Z,7.13
2023-01-23T03:29:00.530Z,7.05
2023-01-23T03:31:26.954Z,7.40
2023-01-23T03:33:53.425Z,7.03
2023-01-23T03:36:19.965Z,7.13
2023-01-23T03:39:04.700Z,7.03
2023-01-23T03:41:31.144Z,7.07
2023-01-23T03:43:57.507Z,6.93
2023-01-23T03:46:23.965Z,6.95
2023-01-23T03:48:50.342Z,6.80
2023-01-23T03:51:16.787Z,6.57
2023-01-23T03:53:43.340Z,6.70
2023-01-23T03:56:09.798Z,6.93
2023-01-23T03:58:36.359Z,7.40
2023-01-23T04:01:06.493Z,6.95
2023-01-23T04:03:32.899Z,6.50
2023-01-23T04:05:59.779Z,7.43
2023-01-23T04:08:26.254Z,8.02
2023-01-23T04:11:01.082Z,7.15
2023-01-23T04:13:27.451Z,7.40
2023-01-23T04:15:53.826Z,6.63
2023-01-23T04:18:20.179Z,6.82
2023-01-23T04:20:46.655Z,6.10
2023-01-23T04:23:13.041Z,6.88
2023-01-23T04:25:39.444Z,6.30
2023-01-23T04:28:05.803Z,6.43
2023-01-23T04:30:32.302Z,6.95
2023-01-23T04:32:58.775Z,6.32
2023-01-23T04:35:25.214Z,6.65
2023-01-23T04:37:51.793Z,6.20
2023-01-23T04:40:18.779Z,6.97
2023-01-23T04:42:45.335Z,6.60
2023-01-23T04:45:11.992Z,6.75
2023-01-23T04:47:38.539Z,6.45
2023-01-23T04:50:05.156Z,6.70
2023-01-23T04:52:31.942Z,6.63
2023-01-23T04:54:58.814Z,7.10
2023-01-23T04:57:25.402Z,6.60
2023-01-23T04:59:51.798Z,7.35
2023-01-23T05:02:18.248Z,7.15
2023-01-23T05:04:45.167Z,7.13
2023-01-23T05:07:12.565Z,6.75
2023-01-23T05:09:39.766Z,7.10
2023-01-23T05:12:06.730Z,7.35
2023-01-23T05:14:33.173Z,7.10
2023-01-23T05:16:59.581Z,6.77
2023-01-23T05:19:25.957Z,7.07
2023-01-23T05:21:52.336Z,7.15
2023-01-23T05:24:18.733Z,7.25
2023-01-23T05:26:45.104Z,7.10
2023-01-23T05:29:11.518Z,7.33
2023-01-23T05:31:38.047Z,7.25
2023-01-23T05:34:04.479Z,6.80
2023-01-23T05:36:30.859Z,7.32
2023-01-23T05:38:57.625Z,6.45
2023-01-23T05:41:25.646Z,6.80
2023-01-23T05:43:52.280Z,6.60
2023-01-23T05:46:18.719Z,6.93
2023-01-23T05:48:48.913Z,6.57
2023-01-23T05:51:15.346Z,6.10
2023-01-23T05:53:41.803Z,6.53
2023-01-23T05:56:08.956Z,7.15
2023-01-23T05:58:35.319Z,7.05
2023-01-23T06:01:03.654Z,7.70
2023-01-23T06:03:30.135Z,7.15
2023-01-23T06:05:56.543Z,6.53
2023-01-23T06:08:22.966Z,8.25
2023-01-23T06:10:49.315Z,8.02
2023-01-23T06:13:15.692Z,8.45
2023-01-23T06:15:42.138Z,8.68
2023-01-23T06:18:08.580Z,10.20
2023-01-23T06:20:35.325Z,8.70
2023-01-23T06:23:04.011Z,8.18
2023-01-23T06:25:30.443Z,6.63
2023-01-23T06:27:58.045Z,6.93
2023-01-23T06:30:24.735Z,7.53
2023-01-23T06:32:51.162Z,7.53
2023-01-23T06:35:17.756Z,6.78
2023-01-23T06:37:44.954Z,6.82
2023-01-23T06:40:13.225Z,6.90
2023-01-23T06:42:40.665Z,6.83
2023-01-23T06:45:08.759Z,6.63
2023-01-23T06:47:35.245Z,6.55
2023-01-23T06:50:02.444Z,6.80
2023-01-23T06:52:29.244Z,6.75
2023-01-23T06:54:55.719Z,6.70
2023-01-23T06:57:22.144Z,6.55
2023-01-23T06:59:48.624Z,7.10
2023-01-23T07:02:15.031Z,6.78
2023-01-23T07:04:41.409Z,6.75
2023-01-23T07:07:07.809Z,6.83
2023-01-23T07:09:34.605Z,7.78
2023-01-23T07:12:01.021Z,6.47
2023-01-23T07:14:28.624Z,6.93
2023-01-23T07:16:55.616Z,6.38
2023-01-23T07:19:22.162Z,6.40
2023-01-23T07:21:49.305Z,6.95
2023-01-23T07:24:15.656Z,7.03
2023-01-23T07:26:42.049Z,6.63
2023-01-23T07:29:11.708Z,6.70
2023-01-23T07:31:38.189Z,6.37
2023-01-23T07:34:04.628Z,7.00
2023-01-23T07:36:31.016Z,6.20
2023-01-23T07:38:58.938Z,6.32
2023-01-23T07:41:25.721Z,6.13
2023-01-23T07:43:52.203Z,6.17
2023-01-23T07:46:18.611Z,6.10
2023-01-23T07:48:44.998Z,6.13
2023-01-23T07:51:12.007Z,5.70
2023-01-23T07:53:38.457Z,5.65
2023-01-23T07:56:06.211Z,5.83
2023-01-23T07:58:32.944Z,5.60
2023-01-23T08:00:59.564Z,5.65
2023-01-23T08:03:28.969Z,5.28
2023-01-23T08:05:55.504Z,5.53
2023-01-23T08:08:21.897Z,5.43
2023-01-23T08:10:48.264Z,5.50
2023-01-23T08:13:14.641Z,5.63
2023-01-23T08:15:41.005Z,5.07
2023-01-23T08:18:07.423Z,5.07
2023-01-23T08:20:34.225Z,5.30
2023-01-23T08:23:02.116Z,5.90
2023-01-23T08:25:29.000Z,5.57
2023-01-23T08:27:55.583Z,5.60
2023-01-23T08:30:22.244Z,5.60
2023-01-23T08:32:49.023Z,5.20
2023-01-23T08:35:15.549Z,5.25
2023-01-23T08:37:42.231Z,5.80
2023-01-23T08:40:09.637Z,5.55
2023-01-23T08:42:36.106Z,5.75
2023-01-23T08:45:02.504Z,5.70
2023-01-23T08:47:29.542Z,5.85
2023-01-23T08:49:55.914Z,5.53
2023-01-23T08:52:22.265Z,5.35
2023-01-23T08:54:48.641Z,5.70
2023-01-23T08:57:15.049Z,6.40
2023-01-23T08:59:42.572Z,6.13
2023-01-23T09:02:11.766Z,5.90
2023-01-23T09:04:38.335Z,5.45
2023-01-23T09:07:04.729Z,6.05
2023-01-23T09:09:31.144Z,5.73
2023-01-23T09:11:57.715Z,6.07
2023-01-23T09:14:24.192Z,6.00
2023-01-23T09:16:50.605Z,6.10
2023-01-23T09:19:16.991Z,5.82
2023-01-23T09:21:43.468Z,5.97
2023-01-23T09:24:10.047Z,6.20
2023-01-23T09:26:36.522Z,6.03
2023-01-23T09:29:02.919Z,6.18
2023-01-23T09:31:29.335Z,6.03
2023-01-23T09:33:55.751Z,6.03
2023-01-23T09:36:37.496Z,6.68
2023-01-23T09:39:07.905Z,6.55
2023-01-23T09:41:34.557Z,6.47
2023-01-23T09:44:12.627Z,6.05
2023-01-23T09:46:55.582Z,6.83
2023-01-23T09:49:50.891Z,6.53
2023-01-23T09:52:21.520Z,6.65
2023-01-23T09:54:53.267Z,6.18
2023-01-23T09:57:24.751Z,6.55
2023-01-23T10:00:00.398Z,6.43
2023-01-23T10:02:27.857Z,6.35
2023-01-23T10:04:56.488Z,6.30
2023-01-23T10:07:35.032Z,6.47
2023-01-23T10:10:39.139Z,6.80
2023-01-23T10:13:17.957Z,6.77
2023-01-23T10:16:03.005Z,6.75
2023-01-23T10:18:54.321Z,6.85
2023-01-23T10:21:38.935Z,7.30
2023-01-23T10:24:23.818Z,6.50
2023-01-23T10:26:50.574Z,6.90
2023-01-23T10:29:38.734Z,6.75
2023-01-23T10:32:19.381Z,6.88
2023-01-23T10:34:54.566Z,6.22
2023-01-23T10:37:42.684Z,7.43
2023-01-23T10:40:38.851Z,7.60
2023-01-23T10:43:20.162Z,7.45
2023-01-23T10:45:49.148Z,7.05
2023-01-23T10:48:33.780Z,7.70
2023-01-23T10:51:00.613Z,7.57
2023-01-23T10:53:27.501Z,6.90
2023-01-23T10:55:58.602Z,7.03
2023-01-23T10:58:31.729Z,7.10
2023-01-23T11:00:58.217Z,7.18
2023-01-23T11:03:27.959Z,7.05
2023-01-23T11:06:03.657Z,7.90
2023-01-23T11:08:33.622Z,7.15
2023-01-23T11:11:15.347Z,6.95
2023-01-23T11:13:47.224Z,7.80
2023-01-23T11:16:16.246Z,7.53
2023-01-23T11:18:53.341Z,7.70
2023-01-23T11:21:33.095Z,8.00
2023-01-23T11:24:24.828Z,7.80
2023-01-23T11:27:20.391Z,7.32
2023-01-23T11:29:55.748Z,7.65
2023-01-23T11:32:23.772Z,8.30
2023-01-23T11:34:57.198Z,8.25
2023-01-23T11:37:38.858Z,8.00
2023-01-23T11:40:11.923Z,7.25
2023-01-23T11:42:41.639Z,7.93
2023-01-23T11:45:37.786Z,7.90
2023-01-23T11:48:10.179Z,8.10
2023-01-23T11:50:54.834Z,8.15
2023-01-23T11:53:43.002Z,7.65
2023-01-23T11:56:18.911Z,7.45
2023-01-23T11:59:19.396Z,7.47
2023-01-23T12:02:03.506Z,7.63
2023-01-23T12:04:56.856Z,7.45
2023-01-23T12:07:24.839Z,7.50
2023-01-23T12:10:03.531Z,7.65
2023-01-23T12:12:43.598Z,7.23
2023-01-23T12:15:18.431Z,7.38
2023-01-23T12:18:16.115Z,7.40
2023-01-23T12:21:11.828Z,6.68
2023-01-23T12:23:57.448Z,6.47
2023-01-23T12:26:27.001Z,7.10
2023-01-23T12:29:18.520Z,6.85
2023-01-23T12:32:12.766Z,6.43
2023-01-23T12:35:04.057Z,6.40
2023-01-23T12:37:47.134Z,5.90
2023-01-23T12:40:22.804Z,6.20
2023-01-23T12:43:00.355Z,5.95
2023-01-23T12:45:30.785Z,5.90
2023-01-23T12:48:13.232Z,6.03
2023-01-23T12:50:51.223Z,6.90
2023-01-23T12:53:21.192Z,36.77
2023-01-23T12:56:08.439Z,24.42
2023-01-23T12:58:40.629Z,8.45
2023-01-23T13:01:29.311Z,8.02
2023-01-23T13:04:34.948Z,12.10
2023-01-23T13:07:16.468Z,12.03
2023-01-23T13:10:04.534Z,9.40
2023-01-23T13:12:31.268Z,7.50
2023-01-23T13:15:39.546Z,8.70
2023-01-23T13:18:22.321Z,9.07
2023-01-23T13:21:17.860Z,7.80
2023-01-23T13:23:44.800Z,10.30
2023-01-23T13:26:20.610Z,7.88
2023-01-23T13:28:48.813Z,7.53
2023-01-23T13:31:38.068Z,10.55
2023-01-23T13:34:16.913Z,8.30
2023-01-23T13:36:47.334Z,12.70
2023-01-23T13:39:16.701Z,9.93
2023-01-23T13:41:47.318Z,11.88
2023-01-23T13:44:19.076Z,14.95
2023-01-23T14:21:52.960Z,6.97
2023-01-23T14:24:29.062Z,7.72
2023-01-23T14:27:09.450Z,7.28
2023-01-23T14:29:36.164Z,7.40
2023-01-23T14:32:02.734Z,7.63
2023-01-23T14:34:29.312Z,7.50
2023-01-23T14:37:04.248Z,7.70
2023-01-23T14:39:33.496Z,7.13
2023-01-23T14:42:02.674Z,8.00
2023-01-23T14:44:42.132Z,7.63
2023-01-23T14:47:18.046Z,7.88
2023-01-23T14:49:47.121Z,7.43
2023-01-23T14:52:26.115Z,7.70
2023-01-23T14:54:54.422Z,7.40
2023-01-23T14:57:26.004Z,7.00
2023-01-23T14:59:57.427Z,8.00
2023-01-23T15:02:33.454Z,7.70
2023-01-23T15:05:15.324Z,8.05
2023-01-23T15:07:55.862Z,8.00
2023-01-23T15:10:43.372Z,12.30
2023-01-23T15:13:21.071Z,8.45
2023-01-23T15:15:55.212Z,7.88
2023-01-23T15:18:25.357Z,8.30
2023-01-23T15:20:57.498Z,7.97
2023-01-23T15:23:38.300Z,7.80
2023-01-23T15:26:14.039Z,8.27
2023-01-23T15:29:18.993Z,8.10
2023-01-23T15:31:50.751Z,7.75
2023-01-23T15:34:21.819Z,7.90
2023-01-23T15:36:53.139Z,8.75
2023-01-23T15:39:30.136Z,7.32
2023-01-23T15:41:59.617Z,7.63
2023-01-23T15:44:29.067Z,7.80
2023-01-23T15:46:56.641Z,7.80
2023-01-23T15:49:26.136Z,7.95
2023-01-23T15:51:56.584Z,7.85
2023-01-23T15:54:30.957Z,7.97
2023-01-23T15:57:07.140Z,7.75
2023-01-23T15:59:35.160Z,7.33
2023-01-23T16:02:01.547Z,8.60
2023-01-23T16:04:27.964Z,8.88
2023-01-23T16:06:54.515Z,9.35
2023-01-23T16:09:25.885Z,9.73
2023-01-23T16:11:52.926Z,9.30
2023-01-23T16:14:19.635Z,12.50
2023-01-23T16:16:46.211Z,14.93
2023-01-23T16:19:12.683Z,11.60
2023-01-23T16:21:42.206Z,8.50
2023-01-23T16:24:20.048Z,10.07
2023-01-23T16:26:49.496Z,8.27
2023-01-23T16:29:28.316Z,8.90
2023-01-23T16:31:55.895Z,9.00
2023-01-23T16:34:23.081Z,9.40
2023-01-23T16:36:51.402Z,9.67
2023-01-23T16:39:20.135Z,9.60
2023-01-23T16:41:46.960Z,9.60
2023-01-23T16:44:18.744Z,9.38
2023-01-23T16:46:46.080Z,8.20
2023-01-23T16:49:13.641Z,8.50
2023-01-23T16:51:43.723Z,8.43
2023-01-23T16:54:19.326Z,9.10
2023-01-23T16:56:47.994Z,8.23
2023-01-23T16:59:19.188Z,8.40
2023-01-23T17:01:49.078Z,8.33
2023-01-23T17:04:19.010Z,7.93
2023-01-23T17:06:45.617Z,7.22
2023-01-23T17:09:13.572Z,7.07
2023-01-23T17:11:42.294Z,8.30
2023-01-23T17:14:19.574Z,8.63
2023-01-23T17:16:48.226Z,9.82
2023-01-23T17:19:24.000Z,8.80
2023-01-23T17:21:51.830Z,8.07
2023-01-23T17:24:18.718Z,8.48
2023-01-23T17:26:45.634Z,8.63
2023-01-23T17:29:12.145Z,8.30
2023-01-23T17:31:39.344Z,7.80
2023-01-23T17:34:07.406Z,8.65
2023-01-23T17:36:33.892Z,13.07
2023-01-23T17:39:00.562Z,14.63
2023-01-23T17:41:26.991Z,11.15
2023-01-23T17:43:53.432Z,11.82
2023-01-23T17:46:29.084Z,10.73
2023-01-23T17:48:56.745Z,9.63
2023-01-23T17:51:24.881Z,9.37
2023-01-23T17:53:51.618Z,9.50
2023-01-23T17:56:18.602Z,9.40
2023-01-23T17:58:45.080Z,9.23
2023-01-23T18:01:24.211Z,11.85
2023-01-23T18:03:51.997Z,8.50
2023-01-23T18:06:19.082Z,8.80
2023-01-23T18:08:46.518Z,9.10
2023-01-23T18:11:23.775Z,8.60
2023-01-23T18:14:23.059Z,8.82
2023-01-23T18:16:50.265Z,8.53
2023-01-23T18:19:22.075Z,9.45
2023-01-23T18:21:53.864Z,9.32
2023-01-23T18:24:28.318Z,10.13
2023-01-23T18:27:21.925Z,9.82
2023-01-23T18:29:58.815Z,9.20
2023-01-23T18:32:50.908Z,8.90
2023-01-23T18:35:29.354Z,9.20
2023-01-23T18:38:20.652Z,8.13
2023-01-23T18:40:56.015Z,8.15
2023-01-23T18:43:38.330Z,8.97
2023-01-23T18:46:12.083Z,9.07
2023-01-23T18:48:41.113Z,8.70
2023-01-23T18:51:32.776Z,9.23
2023-01-23T18:54:37.507Z,9.57
2023-01-23T18:57:24.266Z,8.63
2023-01-23T19:00:04.601Z,11.40
2023-01-23T19:02:46.469Z,13.38
2023-01-23T19:05:19.276Z,9.23
2023-01-23T19:07:46.888Z,9.10
2023-01-23T19:10:29.213Z,10.13
2023-01-23T19:13:15.159Z,10.02
2023-01-23T19:15:51.450Z,8.95
2023-01-23T19:18:38.568Z,8.73
2023-01-23T19:21:15.205Z,9.20
2023-01-23T19:24:00.417Z,9.10
2023-01-23T19:26:32.111Z,8.82
2023-01-23T19:29:08.372Z,9.50
2023-01-23T19:31:45.359Z,9.40
2023-01-23T19:34:13.920Z,9.10
2023-01-23T19:36:40.300Z,9.77
2023-01-23T19:39:07.748Z,8.82
2023-01-23T19:41:44.302Z,11.00
2023-01-23T19:44:16.616Z,21.25
2023-01-23T19:46:43.976Z,22.35
2023-01-23T19:49:11.285Z,10.93
2023-01-23T19:51:39.139Z,9.02
2023-01-23T19:54:10.696Z,9.50
2023-01-23T19:56:38.805Z,9.38
2023-01-23T19:59:05.776Z,9.48
2023-01-23T20:01:38.623Z,9.33
2023-01-23T20:04:06.658Z,9.75
2023-01-23T20:06:34.318Z,9.95
2023-01-23T20:09:00.865Z,10.05
2023-01-23T20:11:27.336Z,9.70
2023-01-23T20:13:53.763Z,9.93
2023-01-23T20:16:24.967Z,9.73
2023-01-23T20:18:53.500Z,9.80
2023-01-23T20:21:21.865Z,9.85
2023-01-23T20:23:48.971Z,9.98
2023-01-23T20:26:17.821Z,10.33
2023-01-23T20:28:47.878Z,11.15
2023-01-23T20:31:14.762Z,10.18
2023-01-23T20:33:41.652Z,10.52
2023-01-23T20:36:10.811Z,9.68
2023-01-23T20:38:38.235Z,10.37
2023-01-23T20:41:10.826Z,10.02
2023-01-23T20:43:38.400Z,10.85
2023-01-23T20:46:07.129Z,10.15
2023-01-23T20:48:35.947Z,11.38
2023-01-23T20:51:02.966Z,12.07
2023-01-23T20:53:33.916Z,12.70
2023-01-23T20:56:12.523Z,12.27
2023-01-23T20:59:00.682Z,12.30
2023-01-23T21:01:30.476Z,11.25
2023-01-23T21:03:56.971Z,11.03
2023-01-23T21:06:23.392Z,10.48
2023-01-23T21:08:49.837Z,11.10
2023-01-23T21:11:19.090Z,11.13
2023-01-23T21:13:51.260Z,11.07
2023-01-23T21:16:18.275Z,11.27
2023-01-23T21:18:46.788Z,11.00
2023-01-23T21:21:15.954Z,10.75
2023-01-23T21:23:42.446Z,10.55
2023-01-23T21:26:09.223Z,10.75
2023-01-23T21:28:36.552Z,10.50
2023-01-23T21:31:11.405Z,10.57
2023-01-23T21:33:37.981Z,10.88
2023-01-23T21:36:04.538Z,10.70
2023-01-23T21:38:30.951Z,10.75
2023-01-23T21:40:57.557Z,11.17
2023-01-23T21:43:23.950Z,11.02
2023-01-23T21:45:50.355Z,11.57
2023-01-23T21:48:16.741Z,11.50
2023-01-23T21:50:43.135Z,11.05
2023-01-23T21:53:09.518Z,11.60
2023-01-23T21:55:36.777Z,11.43
2023-01-23T21:58:03.170Z,12.23
2023-01-23T22:00:48.168Z,12.40
2023-01-23T22:03:14.583Z,12.30
2023-01-23T22:05:40.974Z,11.97
2023-01-23T22:08:07.556Z,11.82
2023-01-23T22:10:34.115Z,12.40
2023-01-23T22:13:00.582Z,12.65
2023-01-23T22:15:27.027Z,11.45
2023-01-23T22:17:53.670Z,11.30
2023-01-23T22:20:20.086Z,11.20
2023-01-23T22:22:46.530Z,11.27
2023-01-23T22:25:12.911Z,12.05
2023-01-23T22:27:39.273Z,11.65
2023-01-23T22:30:06.197Z,12.77
2023-01-23T22:32:34.066Z,11.85
2023-01-23T22:35:00.521Z,12.13
2023-01-23T22:37:26.888Z,12.75
2023-01-23T22:39:53.239Z,11.50
2023-01-23T22:42:20.933Z,12.60
2023-01-23T22:44:47.503Z,11.82
2023-01-23T22:47:14.143Z,11.68
2023-01-23T22:49:40.554Z,12.48
2023-01-23T22:52:08.543Z,13.35
2023-01-23T22:54:35.726Z,13.43
2023-01-23T22:57:02.102Z,11.88
2023-01-23T22:59:28.529Z,12.30
2023-01-23T23:01:54.901Z,11.98
2023-01-23T23:04:22.247Z,11.82
2023-01-23T23:06:48.645Z,12.43
2023-01-23T23:09:15.029Z,11.70
2023-01-23T23:11:41.501Z,12.25
2023-01-23T23:14:09.556Z,12.10
2023-01-23T23:16:36.023Z,12.25
2023-01-23T23:19:03.685Z,11.57
2023-01-23T23:21:33.121Z,12.05
2023-01-23T23:24:00.690Z,11.68
2023-01-23T23:26:29.921Z,12.50
2023-01-23T23:28:56.406Z,12.95
2023-01-23T23:31:23.073Z,11.87
2023-01-23T23:33:49.691Z,12.13
2023-01-23T23:36:16.807Z,13.15
2023-01-23T23:38:44.115Z,13.55
2023-01-23T23:41:15.417Z,13.82
2023-01-23T23:43:42.572Z,12.93
2023-01-23T23:46:09.950Z,13.07
2023-01-23T23:48:37.662Z,13.73
2023-01-23T23:51:07.658Z,12.75
2023-01-23T23:53:35.628Z,13.60
2023-01-23T23:56:02.334Z,13.93
2023-01-23T23:58:28.912Z,13.15
